QFA158 NZAA-YMML
Flight info
| Callsign | QFA158 |
|---|---|
| Flight time | N/A |
| Altitude | 38000 |
| Route | AVNAR2Q PEBLU N759 GEMAC Q302 RIMSU DCT BOYSE BOYSE9A |
| Aircraft | B738/M-SDE2E3FGHIRWXY/LB1 |
Departure
| Time | 2026-05-07 08:11 |
|---|---|
| Airport | Auckland International Airport (NZAA) |
Arrival
| Time | N/A |
|---|---|
| Airport | Melbourne Airport (YMML) |
| Time | Latitude | Longitude | Altitude | Speed | Heading |
|---|---|---|---|---|---|
| 2026-05-07 07:27 | -37.00665 | 174.78163 | 25 ft | 0 kts | 118° |
| 2026-05-07 07:56 | -37.00665 | 174.78162 | 24 ft | 1 kts | 118° |
| 2026-05-07 07:57 | -37.00658 | 174.78146 | 27 ft | 3 kts | 118° |
| 2026-05-07 07:57 | -37.00648 | 174.78124 | 26 ft | 3 kts | 118° |
| 2026-05-07 07:57 | -37.00639 | 174.78102 | 27 ft | 3 kts | 118° |
| 2026-05-07 07:57 | -37.00629 | 174.78080 | 26 ft | 3 kts | 118° |
| 2026-05-07 07:58 | -37.00619 | 174.78057 | 29 ft | 3 kts | 117° |
| 2026-05-07 07:58 | -37.00610 | 174.78035 | 29 ft | 3 kts | 115° |
| 2026-05-07 07:58 | -37.00602 | 174.78012 | 26 ft | 3 kts | 108° |
| 2026-05-07 07:58 | -37.00597 | 174.77989 | 30 ft | 3 kts | 101° |
| 2026-05-07 07:59 | -37.00594 | 174.77964 | 25 ft | 3 kts | 91° |
| 2026-05-07 07:59 | -37.00595 | 174.77939 | 29 ft | 3 kts | 79° |
| 2026-05-07 07:59 | -37.00600 | 174.77918 | 27 ft | 1 kts | 71° |
| 2026-05-07 07:59 | -37.00600 | 174.77914 | 27 ft | 0 kts | 71° |
| 2026-05-07 08:02 | -37.00599 | 174.77921 | 25 ft | 3 kts | 72° |
| 2026-05-07 08:03 | -37.00595 | 174.77962 | 25 ft | 5 kts | 94° |
| 2026-05-07 08:03 | -37.00614 | 174.78016 | 27 ft | 10 kts | 130° |
| 2026-05-07 08:03 | -37.00660 | 174.78044 | 25 ft | 7 kts | 174° |
| 2026-05-07 08:03 | -37.00704 | 174.78031 | 25 ft | 6 kts | 202° |
| 2026-05-07 08:04 | -37.00745 | 174.78010 | 27 ft | 6 kts | 197° |
| 2026-05-07 08:04 | -37.00788 | 174.78007 | 29 ft | 6 kts | 168° |
| 2026-05-07 08:04 | -37.00831 | 174.78025 | 26 ft | 7 kts | 161° |
| 2026-05-07 08:04 | -37.00892 | 174.78052 | 26 ft | 12 kts | 160° |
| 2026-05-07 08:05 | -37.00978 | 174.78089 | 27 ft | 13 kts | 160° |
| 2026-05-07 08:05 | -37.01048 | 174.78102 | 26 ft | 10 kts | 215° |
| 2026-05-07 08:05 | -37.01075 | 174.78024 | 25 ft | 10 kts | 252° |
| 2026-05-07 08:05 | -37.01097 | 174.77943 | 28 ft | 10 kts | 251° |
| 2026-05-07 08:06 | -37.01120 | 174.77857 | 26 ft | 12 kts | 252° |
| 2026-05-07 08:06 | -37.01147 | 174.77763 | 26 ft | 11 kts | 250° |
| 2026-05-07 08:06 | -37.01171 | 174.77678 | 26 ft | 10 kts | 250° |
| 2026-05-07 08:06 | -37.01225 | 174.77636 | 27 ft | 10 kts | 173° |
| 2026-05-07 08:07 | -37.01287 | 174.77616 | 26 ft | 10 kts | 233° |
| 2026-05-07 08:07 | -37.01312 | 174.77538 | 30 ft | 10 kts | 251° |
| 2026-05-07 08:07 | -37.01333 | 174.77460 | 25 ft | 10 kts | 251° |
| 2026-05-07 08:07 | -37.01359 | 174.77365 | 25 ft | 13 kts | 251° |
| 2026-05-07 08:08 | -37.01389 | 174.77256 | 26 ft | 13 kts | 250° |
| 2026-05-07 08:08 | -37.01415 | 174.77164 | 28 ft | 9 kts | 250° |
| 2026-05-07 08:08 | -37.01455 | 174.77108 | 25 ft | 9 kts | 200° |
| 2026-05-07 08:08 | -37.01515 | 174.77093 | 28 ft | 9 kts | 191° |
| 2026-05-07 08:09 | -37.01573 | 174.77082 | 28 ft | 8 kts | 187° |
| 2026-05-07 08:09 | -37.01617 | 174.77102 | 27 ft | 7 kts | 113° |
| 2026-05-07 08:09 | -37.01613 | 174.77148 | 27 ft | 5 kts | 73° |
| 2026-05-07 08:09 | -37.01610 | 174.77160 | 26 ft | 0 kts | 71° |
| 2026-05-07 08:10 | -37.01607 | 174.77171 | 26 ft | 5 kts | 71° |
| 2026-05-07 08:10 | -37.01541 | 174.77410 | 27 ft | 60 kts | 71° |
| 2026-05-07 08:10 | -37.01338 | 174.78143 | 29 ft | 116 kts | 71° |
| 2026-05-07 08:11 | -37.01024 | 174.79277 | 30 ft | 158 kts | 71° |
| 2026-05-07 08:11 | -37.00697 | 174.80633 | 428 ft | 161 kts | 72° |
| 2026-05-07 08:11 | -37.00384 | 174.81952 | 1035 ft | 159 kts | 66° |
| 2026-05-07 08:11 | -37.00002 | 174.83240 | 1706 ft | 156 kts | 63° |
| 2026-05-07 08:12 | -36.99604 | 174.84538 | 2226 ft | 164 kts | 63° |
| 2026-05-07 08:12 | -36.99209 | 174.85859 | 2809 ft | 164 kts | 63° |
| 2026-05-07 08:12 | -36.98939 | 174.86774 | 3144 ft | 168 kts | 63° |
| 2026-05-07 08:12 | -36.98595 | 174.88220 | 3551 ft | 186 kts | 79° |
| 2026-05-07 08:13 | -36.98976 | 174.90520 | 3878 ft | 221 kts | 108° |
| 2026-05-07 08:13 | -36.99737 | 174.92264 | 4216 ft | 234 kts | 123° |
| 2026-05-07 08:13 | -37.01023 | 174.93501 | 4703 ft | 238 kts | 159° |
| 2026-05-07 08:13 | -37.02625 | 174.93888 | 5201 ft | 238 kts | 188° |
| 2026-05-07 08:14 | -37.04103 | 174.93128 | 5761 ft | 227 kts | 222° |
| 2026-05-07 08:14 | -37.04853 | 174.92211 | 6039 ft | 229 kts | 236° |
| 2026-05-07 08:14 | -37.05550 | 174.90444 | 6512 ft | 227 kts | 255° |
| 2026-05-07 08:14 | -37.06048 | 174.88527 | 6765 ft | 243 kts | 254° |
| 2026-05-07 08:15 | -37.06611 | 174.86462 | 7061 ft | 257 kts | 253° |
| 2026-05-07 08:15 | -37.07224 | 174.84243 | 7261 ft | 279 kts | 253° |
| 2026-05-07 08:15 | -37.07860 | 174.81951 | 7983 ft | 279 kts | 253° |
| 2026-05-07 08:15 | -37.08503 | 174.79644 | 8680 ft | 282 kts | 253° |
| 2026-05-07 08:16 | -37.09152 | 174.77310 | 9356 ft | 286 kts | 253° |
| 2026-05-07 08:16 | -37.09791 | 174.74949 | 10113 ft | 287 kts | 255° |
| 2026-05-07 08:16 | -37.10564 | 174.72565 | 10445 ft | 307 kts | 246° |
| 2026-05-07 08:16 | -37.11602 | 174.70111 | 10612 ft | 330 kts | 244° |
| 2026-05-07 08:17 | -37.12751 | 174.67541 | 10956 ft | 344 kts | 243° |
| 2026-05-07 08:17 | -37.13930 | 174.64907 | 11559 ft | 348 kts | 243° |
| 2026-05-07 08:17 | -37.15107 | 174.62245 | 12267 ft | 350 kts | 244° |
| 2026-05-07 08:17 | -37.16280 | 174.59550 | 12952 ft | 353 kts | 244° |
| 2026-05-07 08:18 | -37.17451 | 174.56829 | 13628 ft | 356 kts | 244° |
| 2026-05-07 08:18 | -37.18627 | 174.54075 | 14299 ft | 359 kts | 244° |
| 2026-05-07 08:18 | -37.19809 | 174.51296 | 14951 ft | 362 kts | 245° |
| 2026-05-07 08:18 | -37.20992 | 174.48503 | 15626 ft | 364 kts | 245° |
| 2026-05-07 08:19 | -37.22185 | 174.45684 | 16305 ft | 367 kts | 245° |
| 2026-05-07 08:19 | -37.23384 | 174.42846 | 16963 ft | 370 kts | 245° |
| 2026-05-07 08:19 | -37.24593 | 174.39981 | 17613 ft | 373 kts | 245° |
| 2026-05-07 08:19 | -37.25793 | 174.37135 | 18245 ft | 376 kts | 245° |
| 2026-05-07 08:20 | -37.27020 | 174.34225 | 18817 ft | 379 kts | 245° |
| 2026-05-07 08:20 | -37.28259 | 174.31282 | 19356 ft | 382 kts | 245° |
| 2026-05-07 08:20 | -37.29506 | 174.28318 | 19886 ft | 385 kts | 245° |
| 2026-05-07 08:20 | -37.30763 | 174.25327 | 20441 ft | 388 kts | 245° |
| 2026-05-07 08:21 | -37.32029 | 174.22312 | 20982 ft | 391 kts | 245° |
| 2026-05-07 08:21 | -37.33228 | 174.19233 | 21484 ft | 392 kts | 251° |
| 2026-05-07 08:21 | -37.34118 | 174.16041 | 21999 ft | 393 kts | 255° |
| 2026-05-07 08:21 | -37.34918 | 174.12741 | 22502 ft | 396 kts | 256° |
| 2026-05-07 08:22 | -37.35694 | 174.09405 | 22985 ft | 399 kts | 257° |
| 2026-05-07 08:22 | -37.36479 | 174.06038 | 23457 ft | 402 kts | 256° |
| 2026-05-07 08:22 | -37.37279 | 174.02658 | 23903 ft | 405 kts | 256° |
| 2026-05-07 08:22 | -37.38098 | 173.99256 | 24295 ft | 408 kts | 256° |
| 2026-05-07 08:23 | -37.38932 | 173.95836 | 24686 ft | 411 kts | 256° |
| 2026-05-07 08:23 | -37.39778 | 173.92392 | 25075 ft | 413 kts | 256° |
| 2026-05-07 08:23 | -37.40632 | 173.88927 | 25491 ft | 416 kts | 256° |
| 2026-05-07 08:23 | -37.41492 | 173.85445 | 25887 ft | 417 kts | 256° |
| 2026-05-07 08:24 | -37.42354 | 173.81949 | 26251 ft | 420 kts | 256° |
| 2026-05-07 08:24 | -37.43222 | 173.78430 | 26601 ft | 423 kts | 256° |
| 2026-05-07 08:24 | -37.44095 | 173.74883 | 26943 ft | 425 kts | 256° |
| 2026-05-07 08:24 | -37.44971 | 173.71315 | 27289 ft | 428 kts | 256° |
| 2026-05-07 08:25 | -37.45852 | 173.67724 | 27629 ft | 430 kts | 256° |
| 2026-05-07 08:25 | -37.46737 | 173.64112 | 27962 ft | 433 kts | 256° |
| 2026-05-07 08:25 | -37.47624 | 173.60484 | 28285 ft | 435 kts | 256° |
| 2026-05-07 08:25 | -37.48507 | 173.56870 | 28606 ft | 438 kts | 256° |
| 2026-05-07 08:26 | -37.50301 | 173.49506 | 29320 ft | 440 kts | 256° |
| 2026-05-07 08:26 | -37.51200 | 173.45813 | 29673 ft | 442 kts | 256° |
| 2026-05-07 08:26 | -37.52099 | 173.42107 | 29950 ft | 444 kts | 256° |
| 2026-05-07 08:27 | -37.53006 | 173.38366 | 30215 ft | 447 kts | 256° |
| 2026-05-07 08:27 | -37.53912 | 173.34620 | 30537 ft | 447 kts | 256° |
| 2026-05-07 08:27 | -37.54817 | 173.30878 | 30896 ft | 446 kts | 256° |
| 2026-05-07 08:27 | -37.55718 | 173.27146 | 31291 ft | 444 kts | 257° |
| 2026-05-07 08:28 | -37.56613 | 173.23433 | 31663 ft | 442 kts | 257° |
| 2026-05-07 08:28 | -37.57506 | 173.19723 | 31994 ft | 442 kts | 257° |
| 2026-05-07 08:28 | -37.58395 | 173.16018 | 32313 ft | 442 kts | 257° |
| 2026-05-07 08:28 | -37.59283 | 173.12315 | 32682 ft | 440 kts | 257° |
| 2026-05-07 08:29 | -37.60164 | 173.08634 | 33072 ft | 438 kts | 257° |
| 2026-05-07 08:29 | -37.61042 | 173.04961 | 33395 ft | 437 kts | 257° |
| 2026-05-07 08:29 | -37.61918 | 173.01290 | 33679 ft | 437 kts | 258° |
| 2026-05-07 08:29 | -37.62793 | 172.97614 | 33979 ft | 437 kts | 258° |
| 2026-05-07 08:30 | -37.63654 | 172.93996 | 34294 ft | 435 kts | 258° |
| 2026-05-07 08:30 | -37.64523 | 172.90342 | 34599 ft | 434 kts | 258° |
| 2026-05-07 08:30 | -37.65387 | 172.86701 | 34916 ft | 431 kts | 258° |
| 2026-05-07 08:30 | -37.66246 | 172.83076 | 35213 ft | 430 kts | 258° |
| 2026-05-07 08:31 | -37.67099 | 172.79467 | 35498 ft | 428 kts | 258° |
| 2026-05-07 08:31 | -37.67948 | 172.75870 | 35787 ft | 427 kts | 258° |
| 2026-05-07 08:31 | -37.68793 | 172.72288 | 36085 ft | 425 kts | 258° |
| 2026-05-07 08:31 | -37.69632 | 172.68722 | 36344 ft | 423 kts | 258° |
| 2026-05-07 08:32 | -37.70469 | 172.65159 | 36602 ft | 422 kts | 258° |
| 2026-05-07 08:32 | -37.71302 | 172.61610 | 36866 ft | 421 kts | 258° |
| 2026-05-07 08:32 | -37.72131 | 172.58074 | 37162 ft | 419 kts | 258° |
| 2026-05-07 08:32 | -37.72954 | 172.54555 | 37419 ft | 417 kts | 258° |
| 2026-05-07 08:33 | -37.73774 | 172.51046 | 37673 ft | 416 kts | 259° |
| 2026-05-07 08:33 | -37.74591 | 172.47544 | 37885 ft | 415 kts | 259° |
| 2026-05-07 08:33 | -37.75406 | 172.44042 | 38100 ft | 414 kts | 259° |
| 2026-05-07 08:33 | -37.76212 | 172.40574 | 38112 ft | 417 kts | 259° |
| 2026-05-07 08:34 | -37.77845 | 172.33528 | 38115 ft | 417 kts | 258° |
| 2026-05-07 08:34 | -37.79469 | 172.26516 | 38117 ft | 414 kts | 259° |
| 2026-05-07 08:35 | -37.81078 | 172.19547 | 38111 ft | 411 kts | 259° |
| 2026-05-07 08:35 | -37.82672 | 172.12613 | 38112 ft | 410 kts | 259° |
| 2026-05-07 08:36 | -37.84258 | 172.05697 | 38105 ft | 409 kts | 259° |
| 2026-05-07 08:36 | -37.85839 | 171.98776 | 38112 ft | 409 kts | 259° |
| 2026-05-07 08:37 | -37.87418 | 171.91848 | 38104 ft | 410 kts | 259° |
| 2026-05-07 08:37 | -37.88998 | 171.84893 | 38102 ft | 412 kts | 259° |
| 2026-05-07 08:38 | -37.90570 | 171.77952 | 38122 ft | 413 kts | 259° |
| 2026-05-07 08:38 | -37.92154 | 171.70941 | 38103 ft | 415 kts | 259° |
| 2026-05-07 08:39 | -37.93739 | 171.63903 | 38106 ft | 416 kts | 259° |
| 2026-05-07 08:39 | -37.95326 | 171.56832 | 38092 ft | 417 kts | 259° |
| 2026-05-07 08:40 | -37.96911 | 171.49751 | 38080 ft | 417 kts | 259° |
| 2026-05-07 08:40 | -37.98481 | 171.42715 | 38078 ft | 417 kts | 259° |
| 2026-05-07 08:41 | -38.00057 | 171.35634 | 38069 ft | 417 kts | 259° |
| 2026-05-07 08:41 | -38.01625 | 171.28561 | 38070 ft | 416 kts | 259° |
| 2026-05-07 08:42 | -38.03187 | 171.21495 | 38077 ft | 415 kts | 259° |
| 2026-05-07 08:42 | -38.04738 | 171.14452 | 38055 ft | 414 kts | 259° |
| 2026-05-07 08:43 | -38.06282 | 171.07423 | 38058 ft | 412 kts | 259° |
| 2026-05-07 08:43 | -38.07816 | 171.00420 | 38056 ft | 411 kts | 259° |
| 2026-05-07 08:44 | -38.09340 | 170.93436 | 38065 ft | 410 kts | 259° |
| 2026-05-07 08:44 | -38.10847 | 170.86507 | 38050 ft | 409 kts | 260° |
| 2026-05-07 08:45 | -38.11795 | 170.79454 | 38050 ft | 403 kts | 268° |
| 2026-05-07 08:45 | -38.12367 | 170.72376 | 38043 ft | 403 kts | 269° |
| 2026-05-07 08:46 | -38.12945 | 170.65295 | 38043 ft | 403 kts | 268° |
| 2026-05-07 08:46 | -38.13564 | 170.58208 | 38036 ft | 404 kts | 268° |
| 2026-05-07 08:47 | -38.14203 | 170.51103 | 38045 ft | 405 kts | 268° |
| 2026-05-07 08:47 | -38.14847 | 170.43984 | 38032 ft | 406 kts | 268° |
| 2026-05-07 08:48 | -38.15490 | 170.36844 | 38028 ft | 407 kts | 268° |
| 2026-05-07 08:48 | -38.16130 | 170.29679 | 38023 ft | 408 kts | 268° |
| 2026-05-07 08:49 | -38.16766 | 170.22510 | 38022 ft | 409 kts | 268° |
| 2026-05-07 08:49 | -38.17398 | 170.15329 | 38041 ft | 409 kts | 268° |
| 2026-05-07 08:50 | -38.18023 | 170.08179 | 38026 ft | 410 kts | 268° |
| 2026-05-07 08:50 | -38.18649 | 170.00973 | 38007 ft | 409 kts | 268° |
| 2026-05-07 08:51 | -38.19269 | 169.93779 | 38012 ft | 409 kts | 268° |
| 2026-05-07 08:51 | -38.19884 | 169.86596 | 38005 ft | 408 kts | 268° |
| 2026-05-07 08:52 | -38.20493 | 169.79433 | 38019 ft | 407 kts | 268° |
| 2026-05-07 08:52 | -38.21093 | 169.72316 | 38010 ft | 407 kts | 268° |
| 2026-05-07 08:53 | -38.21691 | 169.65169 | 37995 ft | 406 kts | 268° |
| 2026-05-07 08:53 | -38.22283 | 169.58035 | 37997 ft | 405 kts | 268° |
| 2026-05-07 08:54 | -38.22871 | 169.50911 | 37993 ft | 404 kts | 268° |
| 2026-05-07 08:54 | -38.23453 | 169.43797 | 37994 ft | 404 kts | 268° |
| 2026-05-07 08:55 | -38.24027 | 169.36732 | 37993 ft | 404 kts | 268° |
| 2026-05-07 08:55 | -38.24599 | 169.29627 | 37989 ft | 404 kts | 268° |
| 2026-05-07 08:56 | -38.25167 | 169.22526 | 37981 ft | 404 kts | 268° |
| 2026-05-07 08:56 | -38.25732 | 169.15402 | 37981 ft | 404 kts | 268° |
| 2026-05-07 08:57 | -38.26293 | 169.08287 | 37976 ft | 404 kts | 268° |
| 2026-05-07 08:57 | -38.26849 | 169.01164 | 37976 ft | 405 kts | 269° |
| 2026-05-07 08:58 | -38.27402 | 168.94035 | 37970 ft | 405 kts | 269° |
| 2026-05-07 08:58 | -38.27952 | 168.86889 | 37970 ft | 406 kts | 269° |
| 2026-05-07 08:59 | -38.28497 | 168.79744 | 37970 ft | 406 kts | 269° |
| 2026-05-07 08:59 | -38.29035 | 168.72637 | 37970 ft | 406 kts | 269° |
| 2026-05-07 09:00 | -38.29485 | 168.66638 | 37980 ft | 407 kts | 269° |
| 2026-05-07 09:00 | -38.30106 | 168.58304 | 37969 ft | 407 kts | 269° |
| 2026-05-07 09:01 | -38.30636 | 168.51123 | 37964 ft | 407 kts | 269° |
| 2026-05-07 09:01 | -38.31076 | 168.45114 | 37964 ft | 407 kts | 269° |
| 2026-05-07 09:02 | -38.31595 | 168.37979 | 37983 ft | 407 kts | 269° |
| 2026-05-07 09:02 | -38.32112 | 168.30796 | 37984 ft | 407 kts | 269° |
| 2026-05-07 09:03 | -38.32626 | 168.23607 | 37965 ft | 408 kts | 269° |
| 2026-05-07 09:03 | -38.33136 | 168.16410 | 37960 ft | 407 kts | 269° |
| 2026-05-07 09:04 | -38.33640 | 168.09226 | 37960 ft | 407 kts | 269° |
| 2026-05-07 09:04 | -38.34140 | 168.02044 | 37962 ft | 407 kts | 269° |
| 2026-05-07 09:05 | -38.34635 | 167.94872 | 37973 ft | 406 kts | 269° |
| 2026-05-07 09:05 | -38.35125 | 167.87698 | 37959 ft | 407 kts | 269° |
| 2026-05-07 09:06 | -38.35608 | 167.80570 | 37961 ft | 406 kts | 269° |
| 2026-05-07 09:06 | -38.36089 | 167.73397 | 37960 ft | 406 kts | 269° |
| 2026-05-07 09:07 | -38.36566 | 167.66225 | 37956 ft | 406 kts | 269° |
| 2026-05-07 09:07 | -38.37039 | 167.59052 | 37972 ft | 406 kts | 269° |
| 2026-05-07 09:08 | -38.37507 | 167.51869 | 37961 ft | 407 kts | 269° |
| 2026-05-07 09:08 | -38.37972 | 167.44673 | 37959 ft | 407 kts | 269° |
| 2026-05-07 09:09 | -38.38433 | 167.37475 | 37948 ft | 407 kts | 269° |
| 2026-05-07 09:09 | -38.38890 | 167.30274 | 37950 ft | 408 kts | 269° |
| 2026-05-07 09:10 | -38.39342 | 167.23068 | 37945 ft | 408 kts | 269° |
| 2026-05-07 09:10 | -38.39788 | 167.15894 | 37947 ft | 409 kts | 269° |
| 2026-05-07 09:11 | -38.40233 | 167.08664 | 37944 ft | 409 kts | 269° |
| 2026-05-07 09:11 | -38.40674 | 167.01431 | 37961 ft | 409 kts | 270° |
| 2026-05-07 09:12 | -38.41110 | 166.94188 | 37952 ft | 410 kts | 270° |
| 2026-05-07 09:12 | -38.41543 | 166.86944 | 37948 ft | 410 kts | 270° |
| 2026-05-07 09:13 | -38.41970 | 166.79703 | 37952 ft | 410 kts | 270° |
| 2026-05-07 09:13 | -38.42394 | 166.72457 | 37946 ft | 410 kts | 270° |
| 2026-05-07 09:14 | -38.42812 | 166.65221 | 37949 ft | 409 kts | 270° |
| 2026-05-07 09:14 | -38.43223 | 166.58030 | 37947 ft | 409 kts | 270° |
| 2026-05-07 09:15 | -38.43633 | 166.50799 | 37945 ft | 408 kts | 270° |
| 2026-05-07 09:15 | -38.44037 | 166.43577 | 37945 ft | 408 kts | 270° |
| 2026-05-07 09:16 | -38.44436 | 166.36348 | 37942 ft | 408 kts | 270° |
| 2026-05-07 09:16 | -38.44831 | 166.29134 | 37942 ft | 408 kts | 270° |
| 2026-05-07 09:17 | -38.45222 | 166.21918 | 37943 ft | 407 kts | 270° |
| 2026-05-07 09:17 | -38.45607 | 166.14703 | 37937 ft | 407 kts | 270° |
| 2026-05-07 09:18 | -38.45986 | 166.07535 | 37945 ft | 408 kts | 270° |
| 2026-05-07 09:18 | -38.46363 | 166.00314 | 37932 ft | 408 kts | 270° |
| 2026-05-07 09:19 | -38.46736 | 165.93098 | 37937 ft | 407 kts | 270° |
| 2026-05-07 09:19 | -38.47104 | 165.85881 | 37934 ft | 407 kts | 270° |
| 2026-05-07 09:20 | -38.47468 | 165.78653 | 37930 ft | 407 kts | 270° |
| 2026-05-07 09:20 | -38.47827 | 165.71436 | 37939 ft | 408 kts | 270° |
| 2026-05-07 09:21 | -38.48182 | 165.64213 | 37935 ft | 407 kts | 270° |
| 2026-05-07 09:21 | -38.48530 | 165.57037 | 37928 ft | 407 kts | 271° |
| 2026-05-07 09:22 | -38.48876 | 165.49829 | 37929 ft | 407 kts | 271° |
| 2026-05-07 09:22 | -38.49216 | 165.42622 | 37925 ft | 406 kts | 271° |
| 2026-05-07 09:23 | -38.49553 | 165.35409 | 37923 ft | 406 kts | 271° |
| 2026-05-07 09:23 | -38.49885 | 165.28211 | 37923 ft | 406 kts | 271° |
| 2026-05-07 09:24 | -38.50212 | 165.21015 | 37921 ft | 406 kts | 271° |
| 2026-05-07 09:24 | -38.50532 | 165.13867 | 37921 ft | 406 kts | 271° |
| 2026-05-07 09:25 | -38.50850 | 165.06679 | 37942 ft | 405 kts | 271° |
| 2026-05-07 09:25 | -38.51163 | 164.99482 | 37925 ft | 406 kts | 271° |
| 2026-05-07 09:26 | -38.51473 | 164.92284 | 37907 ft | 406 kts | 271° |
| 2026-05-07 09:26 | -38.51777 | 164.85093 | 37911 ft | 405 kts | 271° |
| 2026-05-07 09:27 | -38.52078 | 164.77896 | 37906 ft | 405 kts | 271° |
| 2026-05-07 09:28 | -38.52520 | 164.67120 | 37917 ft | 405 kts | 271° |
| 2026-05-07 09:28 | -38.52806 | 164.59993 | 37903 ft | 405 kts | 271° |
| 2026-05-07 09:29 | -38.53091 | 164.52816 | 37904 ft | 404 kts | 271° |
| 2026-05-07 09:29 | -38.53370 | 164.45648 | 37898 ft | 404 kts | 271° |
| 2026-05-07 09:30 | -38.53645 | 164.38486 | 37905 ft | 404 kts | 272° |
| 2026-05-07 09:30 | -38.53916 | 164.31317 | 37902 ft | 403 kts | 272° |
| 2026-05-07 09:31 | -38.54182 | 164.24170 | 37898 ft | 403 kts | 272° |
| 2026-05-07 09:31 | -38.54442 | 164.17036 | 37889 ft | 402 kts | 272° |
| 2026-05-07 09:32 | -38.54699 | 164.09908 | 37889 ft | 401 kts | 272° |
| 2026-05-07 09:32 | -38.54949 | 164.02808 | 37890 ft | 400 kts | 272° |
| 2026-05-07 09:33 | -38.55196 | 163.95719 | 37894 ft | 399 kts | 272° |
| 2026-05-07 09:33 | -38.55437 | 163.88639 | 37886 ft | 399 kts | 273° |
| 2026-05-07 09:34 | -38.55673 | 163.81601 | 37885 ft | 398 kts | 273° |
| 2026-05-07 09:34 | -38.55905 | 163.74541 | 37875 ft | 398 kts | 273° |
| 2026-05-07 09:35 | -38.56134 | 163.67466 | 37876 ft | 398 kts | 273° |
| 2026-05-07 09:35 | -38.56358 | 163.60396 | 37873 ft | 399 kts | 273° |
| 2026-05-07 09:36 | -38.56578 | 163.53323 | 37874 ft | 399 kts | 273° |
| 2026-05-07 09:36 | -38.56793 | 163.46250 | 37870 ft | 398 kts | 273° |
| 2026-05-07 09:37 | -38.57005 | 163.39163 | 37868 ft | 398 kts | 273° |
| 2026-05-07 09:37 | -38.57213 | 163.32085 | 37863 ft | 398 kts | 273° |
| 2026-05-07 09:38 | -38.57416 | 163.25011 | 37872 ft | 398 kts | 274° |
| 2026-05-07 09:38 | -38.57613 | 163.17983 | 37857 ft | 399 kts | 274° |
| 2026-05-07 09:39 | -38.57808 | 163.10904 | 37861 ft | 399 kts | 274° |
| 2026-05-07 09:39 | -38.58000 | 163.03824 | 37854 ft | 399 kts | 274° |
| 2026-05-07 09:40 | -38.58185 | 162.96749 | 37855 ft | 398 kts | 274° |
| 2026-05-07 09:40 | -38.58364 | 162.89678 | 37850 ft | 398 kts | 275° |
| 2026-05-07 09:41 | -38.58539 | 162.82608 | 37842 ft | 397 kts | 275° |
| 2026-05-07 09:41 | -38.58710 | 162.75555 | 37838 ft | 396 kts | 275° |
| 2026-05-07 09:42 | -38.58876 | 162.68520 | 37837 ft | 396 kts | 275° |
| 2026-05-07 09:42 | -38.59037 | 162.61546 | 37836 ft | 395 kts | 275° |
| 2026-05-07 09:43 | -38.59194 | 162.54535 | 37840 ft | 395 kts | 275° |
| 2026-05-07 09:43 | -38.59347 | 162.47528 | 37827 ft | 394 kts | 275° |
| 2026-05-07 09:44 | -38.59496 | 162.40521 | 37829 ft | 394 kts | 275° |
| 2026-05-07 09:44 | -38.59640 | 162.33525 | 37823 ft | 393 kts | 275° |
| 2026-05-07 09:45 | -38.59780 | 162.26530 | 37824 ft | 393 kts | 275° |
| 2026-05-07 09:45 | -38.59916 | 162.19533 | 37826 ft | 394 kts | 275° |
| 2026-05-07 09:46 | -38.60048 | 162.12543 | 37814 ft | 394 kts | 275° |
| 2026-05-07 09:46 | -38.60176 | 162.05542 | 37808 ft | 394 kts | 275° |
| 2026-05-07 09:47 | -38.60299 | 161.98551 | 37808 ft | 393 kts | 275° |
| 2026-05-07 09:47 | -38.60419 | 161.91553 | 37806 ft | 393 kts | 275° |
| 2026-05-07 09:48 | -38.60515 | 161.85735 | 37807 ft | 394 kts | 276° |
| 2026-05-07 09:48 | -38.60645 | 161.77582 | 37794 ft | 394 kts | 276° |
| 2026-05-07 09:49 | -38.60735 | 161.71702 | 37796 ft | 394 kts | 276° |
| 2026-05-07 09:49 | -38.60838 | 161.64737 | 37794 ft | 394 kts | 276° |
| 2026-05-07 09:50 | -38.60938 | 161.57714 | 37800 ft | 394 kts | 276° |
| 2026-05-07 09:50 | -38.61033 | 161.50686 | 37794 ft | 395 kts | 276° |
| 2026-05-07 09:51 | -38.61124 | 161.43662 | 37783 ft | 395 kts | 276° |
| 2026-05-07 09:51 | -38.61211 | 161.36695 | 37778 ft | 394 kts | 276° |
| 2026-05-07 09:52 | -38.61294 | 161.29687 | 37778 ft | 394 kts | 276° |
| 2026-05-07 09:52 | -38.61372 | 161.22694 | 37774 ft | 393 kts | 276° |
| 2026-05-07 09:53 | -38.61446 | 161.15686 | 37778 ft | 394 kts | 276° |
| 2026-05-07 09:53 | -38.61517 | 161.08693 | 37761 ft | 393 kts | 276° |
| 2026-05-07 09:54 | -38.61583 | 161.01704 | 37767 ft | 393 kts | 276° |
| 2026-05-07 09:54 | -38.61644 | 160.94724 | 37761 ft | 392 kts | 276° |
| 2026-05-07 09:55 | -38.61702 | 160.87749 | 37770 ft | 392 kts | 277° |
| 2026-05-07 09:55 | -38.61755 | 160.80773 | 37754 ft | 392 kts | 277° |
| 2026-05-07 09:56 | -38.61804 | 160.73843 | 37746 ft | 392 kts | 277° |
| 2026-05-07 09:56 | -38.61848 | 160.66875 | 37743 ft | 392 kts | 277° |
| 2026-05-07 09:57 | -38.61889 | 160.59905 | 37741 ft | 392 kts | 277° |
| 2026-05-07 09:57 | -38.61926 | 160.52920 | 37770 ft | 393 kts | 277° |
| 2026-05-07 09:58 | -38.61958 | 160.45928 | 37745 ft | 393 kts | 277° |
| 2026-05-07 09:58 | -38.61987 | 160.38926 | 37731 ft | 394 kts | 277° |
| 2026-05-07 09:59 | -38.62011 | 160.31922 | 37728 ft | 394 kts | 277° |
| 2026-05-07 09:59 | -38.62032 | 160.24908 | 37731 ft | 394 kts | 277° |
| 2026-05-07 10:00 | -38.62048 | 160.17941 | 37744 ft | 395 kts | 277° |
| 2026-05-07 10:00 | -38.62059 | 160.10913 | 37734 ft | 395 kts | 277° |
| 2026-05-07 10:01 | -38.62067 | 160.03877 | 37723 ft | 395 kts | 277° |
| 2026-05-07 10:01 | -38.62071 | 159.96840 | 37727 ft | 396 kts | 277° |
| 2026-05-07 10:02 | -38.62070 | 159.89802 | 37712 ft | 396 kts | 277° |
| 2026-05-07 10:02 | -38.62065 | 159.82771 | 37716 ft | 396 kts | 277° |
| 2026-05-07 10:03 | -38.62056 | 159.75768 | 37707 ft | 396 kts | 277° |
| 2026-05-07 10:03 | -38.62043 | 159.68726 | 37710 ft | 396 kts | 277° |
| 2026-05-07 10:04 | -38.62026 | 159.61676 | 37697 ft | 396 kts | 277° |
| 2026-05-07 10:04 | -38.62004 | 159.54626 | 37702 ft | 396 kts | 277° |
| 2026-05-07 10:05 | -38.61977 | 159.47565 | 37702 ft | 397 kts | 277° |
| 2026-05-07 10:05 | -38.61946 | 159.40493 | 37715 ft | 398 kts | 277° |
| 2026-05-07 10:06 | -38.61911 | 159.33398 | 37701 ft | 399 kts | 277° |
| 2026-05-07 10:06 | -38.61872 | 159.26332 | 37698 ft | 400 kts | 277° |
| 2026-05-07 10:07 | -38.61829 | 159.19199 | 37727 ft | 402 kts | 277° |
| 2026-05-07 10:07 | -38.61780 | 159.12028 | 37702 ft | 403 kts | 277° |
| 2026-05-07 10:08 | -38.61728 | 159.04836 | 37691 ft | 405 kts | 277° |
| 2026-05-07 10:08 | -38.61671 | 158.97629 | 37690 ft | 406 kts | 277° |
| 2026-05-07 10:09 | -38.61609 | 158.90449 | 37690 ft | 407 kts | 277° |
| 2026-05-07 10:09 | -38.61543 | 158.83204 | 37697 ft | 408 kts | 277° |
| 2026-05-07 10:10 | -38.61472 | 158.75948 | 37695 ft | 409 kts | 277° |
| 2026-05-07 10:10 | -38.61396 | 158.68671 | 37690 ft | 409 kts | 277° |
| 2026-05-07 10:11 | -38.61316 | 158.61382 | 37691 ft | 410 kts | 277° |
| 2026-05-07 10:11 | -38.61232 | 158.54097 | 37691 ft | 410 kts | 277° |
| 2026-05-07 10:12 | -38.61143 | 158.46855 | 37689 ft | 410 kts | 277° |
| 2026-05-07 10:12 | -38.61049 | 158.39565 | 37688 ft | 410 kts | 277° |
| 2026-05-07 10:13 | -38.60951 | 158.32283 | 37686 ft | 409 kts | 277° |
| 2026-05-07 10:13 | -38.60849 | 158.25016 | 37688 ft | 409 kts | 277° |
| 2026-05-07 10:14 | -38.60742 | 158.17753 | 37703 ft | 409 kts | 277° |
| 2026-05-07 10:14 | -38.60630 | 158.10480 | 37699 ft | 409 kts | 277° |
| 2026-05-07 10:15 | -38.60514 | 158.03216 | 37695 ft | 409 kts | 277° |
| 2026-05-07 10:15 | -38.60393 | 157.95946 | 37694 ft | 409 kts | 277° |
| 2026-05-07 10:16 | -38.60267 | 157.88656 | 37699 ft | 409 kts | 277° |
| 2026-05-07 10:16 | -38.60137 | 157.81373 | 37702 ft | 410 kts | 276° |
| 2026-05-07 10:17 | -38.60003 | 157.74080 | 37700 ft | 411 kts | 276° |
| 2026-05-07 10:17 | -38.59865 | 157.66821 | 37705 ft | 411 kts | 276° |
| 2026-05-07 10:18 | -38.59722 | 157.59504 | 37703 ft | 411 kts | 276° |
| 2026-05-07 10:18 | -38.59573 | 157.52181 | 37723 ft | 412 kts | 276° |
| 2026-05-07 10:19 | -38.59417 | 157.44858 | 37712 ft | 412 kts | 276° |
| 2026-05-07 10:19 | -38.59256 | 157.37532 | 37716 ft | 412 kts | 276° |
| 2026-05-07 10:20 | -38.59092 | 157.30198 | 37708 ft | 412 kts | 276° |
| 2026-05-07 10:20 | -38.58924 | 157.22919 | 37722 ft | 412 kts | 276° |
| 2026-05-07 10:21 | -38.58750 | 157.15588 | 37726 ft | 413 kts | 276° |
| 2026-05-07 10:21 | -38.58572 | 157.08252 | 37722 ft | 413 kts | 276° |
| 2026-05-07 10:22 | -38.58389 | 157.00924 | 37740 ft | 413 kts | 276° |
| 2026-05-07 10:22 | -38.58202 | 156.93593 | 37730 ft | 413 kts | 276° |
| 2026-05-07 10:23 | -38.58010 | 156.86256 | 37740 ft | 413 kts | 276° |
| 2026-05-07 10:23 | -38.57813 | 156.78906 | 37733 ft | 413 kts | 276° |
| 2026-05-07 10:24 | -38.57612 | 156.71571 | 37740 ft | 413 kts | 276° |
| 2026-05-07 10:24 | -38.57407 | 156.64281 | 37739 ft | 413 kts | 276° |
| 2026-05-07 10:25 | -38.57197 | 156.56938 | 37757 ft | 413 kts | 276° |
| 2026-05-07 10:25 | -38.56981 | 156.49581 | 37750 ft | 414 kts | 276° |
| 2026-05-07 10:26 | -38.56761 | 156.42229 | 37749 ft | 414 kts | 276° |
| 2026-05-07 10:26 | -38.56537 | 156.34874 | 37756 ft | 414 kts | 276° |
| 2026-05-07 10:27 | -38.56307 | 156.27524 | 37753 ft | 414 kts | 276° |
| 2026-05-07 10:27 | -38.56075 | 156.20222 | 37759 ft | 415 kts | 275° |
| 2026-05-07 10:28 | -38.55836 | 156.12851 | 37764 ft | 415 kts | 275° |
| 2026-05-07 10:28 | -38.55592 | 156.05475 | 37763 ft | 416 kts | 275° |
| 2026-05-07 10:29 | -38.55343 | 155.98081 | 37766 ft | 416 kts | 275° |
| 2026-05-07 10:29 | -38.55089 | 155.90683 | 37763 ft | 417 kts | 275° |
| 2026-05-07 10:30 | -38.54697 | 155.79535 | 37773 ft | 419 kts | 275° |
| 2026-05-07 10:30 | -38.54432 | 155.72133 | 37776 ft | 421 kts | 275° |
| 2026-05-07 10:31 | -38.54158 | 155.64637 | 37771 ft | 422 kts | 275° |
| 2026-05-07 10:31 | -38.53878 | 155.57131 | 37771 ft | 424 kts | 275° |
| 2026-05-07 10:32 | -38.53594 | 155.49602 | 37774 ft | 425 kts | 275° |
| 2026-05-07 10:32 | -38.53303 | 155.42044 | 37776 ft | 426 kts | 275° |
| 2026-05-07 10:33 | -38.53007 | 155.34481 | 37774 ft | 426 kts | 275° |
| 2026-05-07 10:33 | -38.52707 | 155.26916 | 37775 ft | 426 kts | 275° |
| 2026-05-07 10:34 | -38.52401 | 155.19351 | 37780 ft | 426 kts | 275° |
| 2026-05-07 10:34 | -38.52093 | 155.11848 | 37780 ft | 425 kts | 275° |
| 2026-05-07 10:35 | -38.51779 | 155.04299 | 37779 ft | 424 kts | 275° |
| 2026-05-07 10:35 | -38.51460 | 154.96778 | 37804 ft | 424 kts | 274° |
| 2026-05-07 10:36 | -38.51137 | 154.89269 | 37791 ft | 423 kts | 274° |
| 2026-05-07 10:36 | -38.50865 | 154.83032 | 37783 ft | 423 kts | 274° |
| 2026-05-07 10:37 | -38.50534 | 154.75536 | 37784 ft | 422 kts | 274° |
| 2026-05-07 10:37 | -38.50144 | 154.66847 | 37796 ft | 422 kts | 274° |
| 2026-05-07 10:38 | -38.49859 | 154.60577 | 37794 ft | 422 kts | 274° |
| 2026-05-07 10:38 | -38.49517 | 154.53147 | 37794 ft | 422 kts | 274° |
| 2026-05-07 10:39 | -38.49167 | 154.45654 | 37801 ft | 422 kts | 274° |
| 2026-05-07 10:39 | -38.48812 | 154.38165 | 37799 ft | 423 kts | 274° |
| 2026-05-07 10:40 | -38.48452 | 154.30662 | 37812 ft | 423 kts | 274° |
| 2026-05-07 10:40 | -38.48086 | 154.23151 | 37817 ft | 424 kts | 274° |
| 2026-05-07 10:41 | -38.47716 | 154.15639 | 37815 ft | 424 kts | 274° |
| 2026-05-07 10:41 | -38.47341 | 154.08123 | 37823 ft | 424 kts | 274° |
| 2026-05-07 10:42 | -38.46960 | 154.00608 | 37818 ft | 424 kts | 273° |
| 2026-05-07 10:42 | -38.46576 | 153.93117 | 37824 ft | 422 kts | 273° |
| 2026-05-07 10:43 | -38.46192 | 153.85695 | 37830 ft | 421 kts | 274° |
| 2026-05-07 10:43 | -38.45801 | 153.78250 | 37839 ft | 420 kts | 274° |
| 2026-05-07 10:44 | -38.45406 | 153.70828 | 37842 ft | 418 kts | 273° |
| 2026-05-07 10:44 | -38.45009 | 153.63436 | 37839 ft | 417 kts | 273° |
| 2026-05-07 10:45 | -38.44607 | 153.56059 | 37853 ft | 415 kts | 273° |
| 2026-05-07 10:45 | -38.44202 | 153.48704 | 37878 ft | 415 kts | 273° |
| 2026-05-07 10:46 | -38.43793 | 153.41356 | 37851 ft | 415 kts | 272° |
| 2026-05-07 10:46 | -38.43380 | 153.34020 | 37878 ft | 415 kts | 273° |
| 2026-05-07 10:47 | -38.42964 | 153.26720 | 37869 ft | 415 kts | 272° |
| 2026-05-07 10:47 | -38.42541 | 153.19367 | 37855 ft | 416 kts | 273° |
| 2026-05-07 10:48 | -38.42113 | 153.12011 | 37859 ft | 416 kts | 273° |
| 2026-05-07 10:48 | -38.41680 | 153.04655 | 37875 ft | 417 kts | 272° |
| 2026-05-07 10:49 | -38.41243 | 152.97305 | 37890 ft | 416 kts | 272° |
| 2026-05-07 10:49 | -38.40802 | 152.89959 | 37885 ft | 415 kts | 272° |
| 2026-05-07 10:50 | -38.40357 | 152.82624 | 37896 ft | 415 kts | 272° |
| 2026-05-07 10:50 | -38.39909 | 152.75340 | 37921 ft | 413 kts | 271° |
| 2026-05-07 10:51 | -38.39454 | 152.67990 | 37914 ft | 413 kts | 272° |
| 2026-05-07 10:51 | -38.39001 | 152.60744 | 37930 ft | 413 kts | 272° |
| 2026-05-07 10:52 | -38.38539 | 152.53445 | 37918 ft | 413 kts | 272° |
| 2026-05-07 10:52 | -38.38074 | 152.46152 | 37923 ft | 413 kts | 272° |
| 2026-05-07 10:53 | -38.37604 | 152.38857 | 37924 ft | 414 kts | 272° |
| 2026-05-07 10:53 | -38.37127 | 152.31530 | 37946 ft | 415 kts | 272° |
| 2026-05-07 10:54 | -38.36644 | 152.24191 | 37941 ft | 416 kts | 272° |
| 2026-05-07 10:54 | -38.36157 | 152.16842 | 37940 ft | 416 kts | 271° |
| 2026-05-07 10:55 | -38.35665 | 152.09501 | 37942 ft | 416 kts | 272° |
| 2026-05-07 10:55 | -38.35171 | 152.02196 | 37945 ft | 416 kts | 272° |
| 2026-05-07 10:56 | -38.34669 | 151.94848 | 37932 ft | 416 kts | 272° |
| 2026-05-07 10:56 | -38.34165 | 151.87529 | 37927 ft | 415 kts | 272° |
| 2026-05-07 10:57 | -38.33656 | 151.80216 | 37959 ft | 414 kts | 271° |
| 2026-05-07 10:57 | -38.33144 | 151.72917 | 37948 ft | 414 kts | 271° |
| 2026-05-07 10:58 | -38.32628 | 151.65624 | 37953 ft | 413 kts | 271° |
| 2026-05-07 10:58 | -38.32111 | 151.58380 | 37957 ft | 413 kts | 272° |
| 2026-05-07 10:59 | -38.31586 | 151.51103 | 37957 ft | 413 kts | 272° |
| 2026-05-07 10:59 | -38.31057 | 151.43819 | 37954 ft | 413 kts | 272° |
| 2026-05-07 11:00 | -38.30523 | 151.36530 | 37966 ft | 413 kts | 272° |
| 2026-05-07 11:00 | -38.29985 | 151.29243 | 37963 ft | 414 kts | 272° |
| 2026-05-07 11:01 | -38.29444 | 151.21993 | 37971 ft | 414 kts | 272° |
| 2026-05-07 11:01 | -38.28896 | 151.14706 | 37968 ft | 414 kts | 272° |
| 2026-05-07 11:02 | -38.28344 | 151.07422 | 37971 ft | 414 kts | 272° |
| 2026-05-07 11:02 | -38.27786 | 151.00132 | 37972 ft | 413 kts | 272° |
| 2026-05-07 11:03 | -38.27226 | 150.92864 | 37988 ft | 412 kts | 272° |
| 2026-05-07 11:03 | -38.26661 | 150.85592 | 37987 ft | 412 kts | 272° |
| 2026-05-07 11:04 | -38.26094 | 150.78347 | 37993 ft | 411 kts | 272° |
| 2026-05-07 11:04 | -38.25525 | 150.71148 | 38003 ft | 410 kts | 272° |
| 2026-05-07 11:05 | -38.24951 | 150.63926 | 38008 ft | 409 kts | 272° |
| 2026-05-07 11:05 | -38.24372 | 150.56710 | 38001 ft | 409 kts | 272° |
| 2026-05-07 11:06 | -38.23791 | 150.49516 | 38009 ft | 408 kts | 272° |
| 2026-05-07 11:06 | -38.23207 | 150.42338 | 38009 ft | 407 kts | 272° |
| 2026-05-07 11:07 | -38.22624 | 150.35217 | 38013 ft | 406 kts | 272° |
| 2026-05-07 11:07 | -38.21843 | 150.28086 | 38040 ft | 408 kts | 276° |
| 2026-05-07 11:08 | -38.20795 | 150.20983 | 38024 ft | 408 kts | 277° |
| 2026-05-07 11:08 | -38.19728 | 150.13892 | 38019 ft | 407 kts | 277° |
| 2026-05-07 11:09 | -38.18681 | 150.06826 | 38025 ft | 406 kts | 277° |
| 2026-05-07 11:09 | -38.17651 | 149.99821 | 38027 ft | 405 kts | 277° |
| 2026-05-07 11:10 | -38.16617 | 149.92783 | 38029 ft | 405 kts | 277° |
| 2026-05-07 11:10 | -38.15579 | 149.85752 | 38032 ft | 403 kts | 277° |